CEB1192 RPLL-RPVM
Flight info
| Callsign | CEB1192 |
|---|---|
| Flight time | 0h 55m |
| Altitude | 35000 |
| Route | IPATA2R IPATA W25 BATAY BATAY3P |
| Aircraft | A320/M-SDE3FGHIRWY/LB1 |
Departure
| Time | 2026-05-08 07:48 |
|---|---|
| Airport | Ninoy Aquino International Airport (RPLL) |
Arrival
| Time | 2026-05-08 08:44 |
|---|---|
| Airport | Mactan Cebu International Airport (RPVM) |
| Time | Latitude | Longitude | Altitude | Speed | Heading |
|---|---|---|---|---|---|
| 2026-05-08 07:11 | 14.51648 | 121.01720 | 69 ft | 0 kts | 225° |
| 2026-05-08 07:34 | 14.51661 | 121.01732 | 64 ft | 4 kts | 220° |
| 2026-05-08 07:34 | 14.51682 | 121.01748 | 63 ft | 4 kts | 205° |
| 2026-05-08 07:35 | 14.51707 | 121.01756 | 64 ft | 4 kts | 174° |
| 2026-05-08 07:35 | 14.51723 | 121.01750 | 60 ft | 0 kts | 134° |
| 2026-05-08 07:37 | 14.51702 | 121.01770 | 63 ft | 7 kts | 143° |
| 2026-05-08 07:38 | 14.51645 | 121.01783 | 62 ft | 10 kts | 192° |
| 2026-05-08 07:38 | 14.51584 | 121.01733 | 65 ft | 11 kts | 225° |
| 2026-05-08 07:38 | 14.51532 | 121.01679 | 65 ft | 10 kts | 224° |
| 2026-05-08 07:38 | 14.51486 | 121.01635 | 66 ft | 8 kts | 220° |
| 2026-05-08 07:39 | 14.51445 | 121.01603 | 62 ft | 7 kts | 216° |
| 2026-05-08 07:39 | 14.51411 | 121.01576 | 63 ft | 6 kts | 211° |
| 2026-05-08 07:39 | 14.51358 | 121.01588 | 64 ft | 10 kts | 139° |
| 2026-05-08 07:39 | 14.51299 | 121.01647 | 63 ft | 13 kts | 135° |
| 2026-05-08 07:40 | 14.51232 | 121.01717 | 66 ft | 15 kts | 135° |
| 2026-05-08 07:40 | 14.51157 | 121.01795 | 65 ft | 16 kts | 135° |
| 2026-05-08 07:40 | 14.51089 | 121.01864 | 61 ft | 8 kts | 134° |
| 2026-05-08 07:40 | 14.51045 | 121.01909 | 65 ft | 7 kts | 141° |
| 2026-05-08 07:41 | 14.50994 | 121.01900 | 69 ft | 9 kts | 231° |
| 2026-05-08 07:41 | 14.50961 | 121.01844 | 59 ft | 9 kts | 240° |
| 2026-05-08 07:41 | 14.50918 | 121.01767 | 65 ft | 17 kts | 240° |
| 2026-05-08 07:41 | 14.50846 | 121.01640 | 67 ft | 23 kts | 239° |
| 2026-05-08 07:42 | 14.50762 | 121.01491 | 67 ft | 25 kts | 241° |
| 2026-05-08 07:42 | 14.50675 | 121.01330 | 66 ft | 26 kts | 239° |
| 2026-05-08 07:42 | 14.50622 | 121.01235 | 65 ft | 13 kts | 240° |
| 2026-05-08 07:42 | 14.50579 | 121.01159 | 67 ft | 12 kts | 239° |
| 2026-05-08 07:43 | 14.50536 | 121.01082 | 65 ft | 14 kts | 239° |
| 2026-05-08 07:43 | 14.50478 | 121.00978 | 65 ft | 19 kts | 240° |
| 2026-05-08 07:43 | 14.50406 | 121.00849 | 64 ft | 22 kts | 240° |
| 2026-05-08 07:43 | 14.50326 | 121.00706 | 62 ft | 24 kts | 241° |
| 2026-05-08 07:44 | 14.50243 | 121.00556 | 61 ft | 24 kts | 239° |
| 2026-05-08 07:44 | 14.50163 | 121.00412 | 68 ft | 18 kts | 240° |
| 2026-05-08 07:44 | 14.50102 | 121.00304 | 66 ft | 17 kts | 240° |
| 2026-05-08 07:44 | 14.50044 | 121.00198 | 68 ft | 17 kts | 240° |
| 2026-05-08 07:45 | 14.49989 | 121.00098 | 67 ft | 16 kts | 240° |
| 2026-05-08 07:45 | 14.49942 | 121.00015 | 64 ft | 12 kts | 240° |
| 2026-05-08 07:45 | 14.49885 | 120.99967 | 66 ft | 11 kts | 181° |
| 2026-05-08 07:45 | 14.49816 | 121.00004 | 61 ft | 12 kts | 135° |
| 2026-05-08 07:46 | 14.49828 | 121.00083 | 67 ft | 13 kts | 59° |
| 2026-05-08 07:46 | 14.49868 | 121.00155 | 63 ft | 0 kts | 60° |
| 2026-05-08 07:47 | 14.49895 | 121.00205 | 62 ft | 33 kts | 60° |
| 2026-05-08 07:48 | 14.50141 | 121.00650 | 65 ft | 105 kts | 61° |
| 2026-05-08 07:48 | 14.50599 | 121.01481 | 64 ft | 158 kts | 62° |
| 2026-05-08 07:48 | 14.51135 | 121.02531 | 630 ft | 161 kts | 64° |
| 2026-05-08 07:48 | 14.51684 | 121.03544 | 1384 ft | 162 kts | 63° |
| 2026-05-08 07:49 | 14.52244 | 121.04560 | 2020 ft | 168 kts | 63° |
| 2026-05-08 07:49 | 14.52869 | 121.05669 | 2338 ft | 187 kts | 62° |
| 2026-05-08 07:49 | 14.53547 | 121.06873 | 2739 ft | 200 kts | 61° |
| 2026-05-08 07:49 | 14.54265 | 121.08140 | 3190 ft | 209 kts | 61° |
| 2026-05-08 07:50 | 14.55028 | 121.09486 | 3513 ft | 230 kts | 61° |
| 2026-05-08 07:50 | 14.55869 | 121.11003 | 3826 ft | 255 kts | 61° |
| 2026-05-08 07:50 | 14.56717 | 121.12649 | 4566 ft | 263 kts | 70° |
| 2026-05-08 07:50 | 14.56990 | 121.14519 | 5362 ft | 268 kts | 94° |
| 2026-05-08 07:51 | 14.56426 | 121.16362 | 6131 ft | 276 kts | 121° |
| 2026-05-08 07:51 | 14.55121 | 121.17833 | 6926 ft | 281 kts | 136° |
| 2026-05-08 07:51 | 14.53658 | 121.19188 | 7729 ft | 284 kts | 136° |
| 2026-05-08 07:51 | 14.52172 | 121.20559 | 8521 ft | 288 kts | 136° |
| 2026-05-08 07:52 | 14.50665 | 121.21950 | 9289 ft | 293 kts | 136° |
| 2026-05-08 07:52 | 14.49138 | 121.23363 | 10034 ft | 297 kts | 136° |
| 2026-05-08 07:52 | 14.47567 | 121.24822 | 10427 ft | 314 kts | 135° |
| 2026-05-08 07:52 | 14.45890 | 121.26388 | 10653 ft | 335 kts | 136° |
| 2026-05-08 07:53 | 14.44137 | 121.28024 | 11206 ft | 343 kts | 135° |
| 2026-05-08 07:53 | 14.42360 | 121.29679 | 11886 ft | 346 kts | 136° |
| 2026-05-08 07:53 | 14.40558 | 121.31351 | 12574 ft | 349 kts | 135° |
| 2026-05-08 07:53 | 14.38745 | 121.33032 | 13245 ft | 352 kts | 135° |
| 2026-05-08 07:54 | 14.36910 | 121.34732 | 13858 ft | 356 kts | 135° |
| 2026-05-08 07:54 | 14.35061 | 121.36447 | 14401 ft | 360 kts | 136° |
| 2026-05-08 07:54 | 14.33185 | 121.38186 | 14952 ft | 364 kts | 136° |
| 2026-05-08 07:54 | 14.31303 | 121.39933 | 15546 ft | 366 kts | 136° |
| 2026-05-08 07:55 | 14.29403 | 121.41696 | 16136 ft | 368 kts | 135° |
| 2026-05-08 07:55 | 14.27501 | 121.43465 | 16738 ft | 370 kts | 136° |
| 2026-05-08 07:55 | 14.25581 | 121.45249 | 17287 ft | 373 kts | 136° |
| 2026-05-08 07:55 | 14.23650 | 121.47038 | 17844 ft | 375 kts | 136° |
| 2026-05-08 07:56 | 14.21702 | 121.48843 | 18336 ft | 378 kts | 136° |
| 2026-05-08 07:56 | 14.19739 | 121.50664 | 18832 ft | 380 kts | 136° |
| 2026-05-08 07:56 | 14.17763 | 121.52497 | 19294 ft | 383 kts | 136° |
| 2026-05-08 07:56 | 14.15778 | 121.54338 | 19510 ft | 385 kts | 136° |
| 2026-05-08 07:57 | 14.13776 | 121.56194 | 20178 ft | 389 kts | 136° |
| 2026-05-08 07:57 | 14.11750 | 121.58069 | 20595 ft | 394 kts | 137° |
| 2026-05-08 07:57 | 14.09701 | 121.59964 | 21005 ft | 397 kts | 136° |
| 2026-05-08 07:57 | 14.07634 | 121.61874 | 21448 ft | 400 kts | 137° |
| 2026-05-08 07:58 | 14.05554 | 121.63800 | 21888 ft | 403 kts | 136° |
| 2026-05-08 07:58 | 14.03461 | 121.65741 | 22314 ft | 407 kts | 137° |
| 2026-05-08 07:58 | 14.01346 | 121.67699 | 22709 ft | 410 kts | 136° |
| 2026-05-08 07:58 | 13.99216 | 121.69667 | 23113 ft | 414 kts | 137° |
| 2026-05-08 07:59 | 13.97061 | 121.71656 | 23492 ft | 418 kts | 136° |
| 2026-05-08 07:59 | 13.94891 | 121.73659 | 23833 ft | 420 kts | 137° |
| 2026-05-08 07:59 | 13.92705 | 121.75678 | 24175 ft | 423 kts | 136° |
| 2026-05-08 07:59 | 13.90513 | 121.77707 | 24546 ft | 425 kts | 137° |
| 2026-05-08 08:00 | 13.88305 | 121.79752 | 24910 ft | 427 kts | 137° |
| 2026-05-08 08:00 | 13.86053 | 121.81748 | 25259 ft | 429 kts | 142° |
| 2026-05-08 08:00 | 13.83642 | 121.83574 | 25620 ft | 431 kts | 143° |
| 2026-05-08 08:00 | 13.81211 | 121.85406 | 25973 ft | 433 kts | 143° |
| 2026-05-08 08:01 | 13.78779 | 121.87237 | 26324 ft | 435 kts | 143° |
| 2026-05-08 08:01 | 13.76361 | 121.89057 | 26673 ft | 437 kts | 143° |
| 2026-05-08 08:01 | 13.73871 | 121.90932 | 27014 ft | 439 kts | 143° |
| 2026-05-08 08:01 | 13.71409 | 121.92791 | 27345 ft | 441 kts | 143° |
| 2026-05-08 08:02 | 13.68960 | 121.94641 | 27671 ft | 443 kts | 143° |
| 2026-05-08 08:02 | 13.66469 | 121.96518 | 28004 ft | 445 kts | 143° |
| 2026-05-08 08:02 | 13.63966 | 121.98406 | 28370 ft | 446 kts | 144° |
| 2026-05-08 08:02 | 13.61458 | 122.00295 | 28726 ft | 448 kts | 144° |
| 2026-05-08 08:03 | 13.58942 | 122.02186 | 29073 ft | 449 kts | 144° |
| 2026-05-08 08:03 | 13.56417 | 122.04090 | 29371 ft | 451 kts | 144° |
| 2026-05-08 08:03 | 13.53881 | 122.06003 | 29696 ft | 453 kts | 144° |
| 2026-05-08 08:03 | 13.51329 | 122.07926 | 29943 ft | 456 kts | 144° |
| 2026-05-08 08:04 | 13.48764 | 122.09855 | 30208 ft | 457 kts | 144° |
| 2026-05-08 08:04 | 13.46196 | 122.11783 | 30450 ft | 459 kts | 144° |
| 2026-05-08 08:04 | 13.43608 | 122.13729 | 30682 ft | 461 kts | 144° |
| 2026-05-08 08:04 | 13.41888 | 122.15023 | 30822 ft | 463 kts | 144° |
| 2026-05-08 08:05 | 13.39288 | 122.16978 | 31038 ft | 465 kts | 144° |
| 2026-05-08 08:05 | 13.36664 | 122.18947 | 31294 ft | 466 kts | 145° |
| 2026-05-08 08:05 | 13.34051 | 122.20908 | 31607 ft | 466 kts | 145° |
| 2026-05-08 08:05 | 13.31435 | 122.22875 | 31906 ft | 466 kts | 145° |
| 2026-05-08 08:06 | 13.28819 | 122.24844 | 32187 ft | 466 kts | 145° |
| 2026-05-08 08:06 | 13.26198 | 122.26811 | 32476 ft | 467 kts | 145° |
| 2026-05-08 08:06 | 13.23569 | 122.28780 | 32758 ft | 468 kts | 145° |
| 2026-05-08 08:06 | 13.20938 | 122.30749 | 33037 ft | 468 kts | 145° |
| 2026-05-08 08:07 | 13.18307 | 122.32723 | 33330 ft | 469 kts | 146° |
| 2026-05-08 08:07 | 13.15675 | 122.34701 | 33622 ft | 469 kts | 146° |
| 2026-05-08 08:07 | 13.13041 | 122.36680 | 33905 ft | 470 kts | 146° |
| 2026-05-08 08:07 | 13.10403 | 122.38658 | 34169 ft | 470 kts | 146° |
| 2026-05-08 08:08 | 13.07766 | 122.40634 | 34448 ft | 469 kts | 146° |
| 2026-05-08 08:08 | 13.05124 | 122.42617 | 34728 ft | 469 kts | 146° |
| 2026-05-08 08:08 | 13.02493 | 122.44592 | 34816 ft | 467 kts | 146° |
| 2026-05-08 08:09 | 12.97283 | 122.48489 | 34838 ft | 461 kts | 146° |
| 2026-05-08 08:09 | 12.92098 | 122.52356 | 34838 ft | 460 kts | 146° |
| 2026-05-08 08:10 | 12.86919 | 122.56224 | 34837 ft | 460 kts | 146° |
| 2026-05-08 08:10 | 12.81741 | 122.60095 | 34838 ft | 460 kts | 146° |
| 2026-05-08 08:11 | 12.76563 | 122.63972 | 34840 ft | 461 kts | 146° |
| 2026-05-08 08:11 | 12.71420 | 122.67818 | 34843 ft | 461 kts | 146° |
| 2026-05-08 08:12 | 12.66232 | 122.71685 | 34847 ft | 461 kts | 146° |
| 2026-05-08 08:12 | 12.61037 | 122.75553 | 34838 ft | 462 kts | 147° |
| 2026-05-08 08:13 | 12.55833 | 122.79423 | 34839 ft | 462 kts | 147° |
| 2026-05-08 08:13 | 12.50636 | 122.83296 | 34838 ft | 463 kts | 146° |
| 2026-05-08 08:14 | 12.45430 | 122.87176 | 34835 ft | 463 kts | 146° |
| 2026-05-08 08:14 | 12.40215 | 122.91061 | 34839 ft | 463 kts | 147° |
| 2026-05-08 08:15 | 12.35003 | 122.94941 | 34841 ft | 463 kts | 146° |
| 2026-05-08 08:15 | 12.29795 | 122.98817 | 34843 ft | 463 kts | 146° |
| 2026-05-08 08:16 | 12.24587 | 123.02684 | 34845 ft | 463 kts | 147° |
| 2026-05-08 08:16 | 12.19370 | 123.06554 | 34840 ft | 463 kts | 146° |
| 2026-05-08 08:17 | 12.14162 | 123.10423 | 34842 ft | 463 kts | 146° |
| 2026-05-08 08:17 | 12.08959 | 123.14289 | 34840 ft | 463 kts | 146° |
| 2026-05-08 08:18 | 12.03750 | 123.18155 | 34839 ft | 463 kts | 146° |
| 2026-05-08 08:18 | 11.98537 | 123.22019 | 34842 ft | 462 kts | 146° |
| 2026-05-08 08:19 | 11.93327 | 123.25874 | 34844 ft | 462 kts | 146° |
| 2026-05-08 08:19 | 11.88130 | 123.29726 | 34850 ft | 461 kts | 146° |
| 2026-05-08 08:20 | 11.82935 | 123.33574 | 34851 ft | 461 kts | 146° |
| 2026-05-08 08:20 | 11.77742 | 123.37410 | 34852 ft | 461 kts | 146° |
| 2026-05-08 08:21 | 11.72540 | 123.41248 | 34852 ft | 461 kts | 146° |
| 2026-05-08 08:21 | 11.67394 | 123.45060 | 34840 ft | 455 kts | 146° |
| 2026-05-08 08:22 | 11.62331 | 123.48806 | 34838 ft | 448 kts | 146° |
| 2026-05-08 08:22 | 11.57256 | 123.52551 | 34159 ft | 454 kts | 146° |
| 2026-05-08 08:22 | 11.54696 | 123.54443 | 33565 ft | 455 kts | 145° |
| 2026-05-08 08:23 | 11.52140 | 123.56334 | 32986 ft | 454 kts | 145° |
| 2026-05-08 08:23 | 11.49590 | 123.58219 | 32426 ft | 452 kts | 145° |
| 2026-05-08 08:23 | 11.47041 | 123.60101 | 31860 ft | 451 kts | 145° |
| 2026-05-08 08:23 | 11.44504 | 123.61972 | 31305 ft | 449 kts | 145° |
| 2026-05-08 08:24 | 11.41978 | 123.63835 | 30756 ft | 448 kts | 145° |
| 2026-05-08 08:24 | 11.39459 | 123.65692 | 30206 ft | 446 kts | 144° |
| 2026-05-08 08:24 | 11.36944 | 123.67541 | 29690 ft | 443 kts | 144° |
| 2026-05-08 08:24 | 11.34456 | 123.69374 | 29089 ft | 441 kts | 144° |
| 2026-05-08 08:25 | 11.31982 | 123.71198 | 28562 ft | 437 kts | 144° |
| 2026-05-08 08:25 | 11.29527 | 123.73006 | 28046 ft | 433 kts | 144° |
| 2026-05-08 08:25 | 11.27095 | 123.74796 | 27559 ft | 429 kts | 144° |
| 2026-05-08 08:25 | 11.24682 | 123.76569 | 27063 ft | 426 kts | 144° |
| 2026-05-08 08:26 | 11.22281 | 123.78330 | 26590 ft | 423 kts | 144° |
| 2026-05-08 08:26 | 11.19903 | 123.80077 | 26123 ft | 420 kts | 143° |
| 2026-05-08 08:26 | 11.17529 | 123.81787 | 25644 ft | 418 kts | 148° |
| 2026-05-08 08:26 | 11.14894 | 123.83016 | 25162 ft | 416 kts | 162° |
| 2026-05-08 08:27 | 11.12053 | 123.83510 | 24640 ft | 416 kts | 178° |
| 2026-05-08 08:27 | 11.09174 | 123.83228 | 24112 ft | 416 kts | 192° |
| 2026-05-08 08:27 | 11.06396 | 123.82459 | 23757 ft | 410 kts | 194° |
| 2026-05-08 08:27 | 11.03630 | 123.81676 | 22967 ft | 416 kts | 194° |
| 2026-05-08 08:28 | 11.00824 | 123.80887 | 22128 ft | 421 kts | 194° |
| 2026-05-08 08:28 | 10.97993 | 123.80095 | 21474 ft | 421 kts | 194° |
| 2026-05-08 08:28 | 10.95183 | 123.79312 | 20995 ft | 417 kts | 193° |
| 2026-05-08 08:28 | 10.92417 | 123.78540 | 20507 ft | 404 kts | 193° |
| 2026-05-08 08:29 | 10.89761 | 123.77798 | 20039 ft | 388 kts | 193° |
| 2026-05-08 08:29 | 10.87203 | 123.77082 | 19575 ft | 375 kts | 193° |
| 2026-05-08 08:29 | 10.84714 | 123.76386 | 19061 ft | 368 kts | 193° |
| 2026-05-08 08:29 | 10.82237 | 123.75696 | 18548 ft | 370 kts | 193° |
| 2026-05-08 08:30 | 10.79744 | 123.75001 | 18031 ft | 373 kts | 192° |
| 2026-05-08 08:30 | 10.77238 | 123.74301 | 17447 ft | 374 kts | 193° |
| 2026-05-08 08:30 | 10.72271 | 123.72917 | 16310 ft | 364 kts | 193° |
| 2026-05-08 08:31 | 10.69862 | 123.72246 | 15761 ft | 354 kts | 193° |
| 2026-05-08 08:31 | 10.67514 | 123.71593 | 15216 ft | 346 kts | 193° |
| 2026-05-08 08:31 | 10.65213 | 123.70951 | 14697 ft | 340 kts | 193° |
| 2026-05-08 08:31 | 10.62947 | 123.70319 | 14166 ft | 336 kts | 193° |
| 2026-05-08 08:32 | 10.60694 | 123.69692 | 13648 ft | 334 kts | 194° |
| 2026-05-08 08:32 | 10.58450 | 123.69070 | 13074 ft | 337 kts | 193° |
| 2026-05-08 08:32 | 10.56174 | 123.68438 | 12484 ft | 341 kts | 194° |
| 2026-05-08 08:32 | 10.53873 | 123.67797 | 11959 ft | 342 kts | 193° |
| 2026-05-08 08:33 | 10.51616 | 123.67167 | 11464 ft | 331 kts | 193° |
| 2026-05-08 08:33 | 10.49429 | 123.66557 | 11002 ft | 322 kts | 193° |
| 2026-05-08 08:33 | 10.47281 | 123.65959 | 10528 ft | 318 kts | 193° |
| 2026-05-08 08:33 | 10.45157 | 123.65368 | 10068 ft | 315 kts | 193° |
| 2026-05-08 08:34 | 10.43064 | 123.64786 | 9594 ft | 307 kts | 193° |
| 2026-05-08 08:34 | 10.41025 | 123.64220 | 9097 ft | 300 kts | 193° |
| 2026-05-08 08:34 | 10.39017 | 123.63663 | 8603 ft | 300 kts | 193° |
| 2026-05-08 08:34 | 10.36968 | 123.63237 | 8110 ft | 300 kts | 181° |
| 2026-05-08 08:35 | 10.34910 | 123.63418 | 7663 ft | 294 kts | 163° |
| 2026-05-08 08:35 | 10.33070 | 123.64189 | 7262 ft | 282 kts | 146° |
| 2026-05-08 08:35 | 10.31572 | 123.65421 | 6894 ft | 275 kts | 133° |
| 2026-05-08 08:35 | 10.30224 | 123.66800 | 6547 ft | 274 kts | 132° |
| 2026-05-08 08:36 | 10.28881 | 123.68169 | 6197 ft | 273 kts | 132° |
| 2026-05-08 08:36 | 10.27570 | 123.69502 | 5830 ft | 260 kts | 132° |
| 2026-05-08 08:36 | 10.26315 | 123.70773 | 5465 ft | 250 kts | 133° |
| 2026-05-08 08:36 | 10.25107 | 123.71997 | 5103 ft | 241 kts | 133° |
| 2026-05-08 08:37 | 10.23942 | 123.73180 | 4753 ft | 234 kts | 133° |
| 2026-05-08 08:37 | 10.22804 | 123.74335 | 4398 ft | 231 kts | 131° |
| 2026-05-08 08:37 | 10.21667 | 123.75491 | 4019 ft | 232 kts | 132° |
| 2026-05-08 08:37 | 10.20520 | 123.76659 | 3667 ft | 234 kts | 132° |
| 2026-05-08 08:38 | 10.19370 | 123.77830 | 3300 ft | 233 kts | 132° |
| 2026-05-08 08:38 | 10.18243 | 123.78974 | 3030 ft | 222 kts | 132° |
| 2026-05-08 08:38 | 10.17187 | 123.80043 | 3004 ft | 209 kts | 131° |
| 2026-05-08 08:38 | 10.16265 | 123.81138 | 3006 ft | 201 kts | 111° |
| 2026-05-08 08:39 | 10.16086 | 123.82485 | 3009 ft | 193 kts | 75° |
| 2026-05-08 08:39 | 10.16745 | 123.83621 | 3011 ft | 193 kts | 40° |
| 2026-05-08 08:39 | 10.17832 | 123.84443 | 3013 ft | 192 kts | 43° |
| 2026-05-08 08:39 | 10.18791 | 123.85381 | 3018 ft | 190 kts | 47° |
| 2026-05-08 08:40 | 10.19662 | 123.86309 | 3024 ft | 173 kts | 47° |
| 2026-05-08 08:40 | 10.20479 | 123.87182 | 2789 ft | 171 kts | 47° |
| 2026-05-08 08:40 | 10.21299 | 123.88047 | 2485 ft | 173 kts | 47° |
| 2026-05-08 08:40 | 10.22133 | 123.88915 | 2254 ft | 169 kts | 47° |
| 2026-05-08 08:41 | 10.22947 | 123.89757 | 2039 ft | 166 kts | 46° |
| 2026-05-08 08:41 | 10.23742 | 123.90573 | 1816 ft | 158 kts | 47° |
| 2026-05-08 08:41 | 10.24496 | 123.91342 | 1634 ft | 151 kts | 47° |
| 2026-05-08 08:41 | 10.25217 | 123.92073 | 1451 ft | 141 kts | 46° |
| 2026-05-08 08:42 | 10.25910 | 123.92772 | 1251 ft | 139 kts | 47° |
| 2026-05-08 08:42 | 10.26587 | 123.93457 | 1072 ft | 137 kts | 46° |
| 2026-05-08 08:42 | 10.27265 | 123.94143 | 893 ft | 136 kts | 47° |
| 2026-05-08 08:42 | 10.27939 | 123.94823 | 706 ft | 138 kts | 45° |
| 2026-05-08 08:43 | 10.28612 | 123.95500 | 540 ft | 135 kts | 45° |
| 2026-05-08 08:43 | 10.29272 | 123.96199 | 349 ft | 137 kts | 48° |
| 2026-05-08 08:43 | 10.29933 | 123.96891 | 216 ft | 136 kts | 42° |
| 2026-05-08 08:43 | 10.30625 | 123.97539 | 64 ft | 133 kts | 45° |
| 2026-05-08 08:44 | 10.31218 | 123.98140 | 38 ft | 104 kts | 46° |
| 2026-05-08 08:44 | 10.31504 | 123.98426 | 39 ft | 71 kts | 45° |
| 2026-05-08 08:44 | 10.31735 | 123.98660 | 36 ft | 31 kts | 45° |
| 2026-05-08 08:44 | 10.31843 | 123.98769 | 37 ft | 17 kts | 45° |
| 2026-05-08 08:45 | 10.31945 | 123.98839 | 37 ft | 14 kts | 356° |
| 2026-05-08 08:45 | 10.31970 | 123.98756 | 37 ft | 17 kts | 233° |
| 2026-05-08 08:45 | 10.31871 | 123.98657 | 38 ft | 24 kts | 225° |
| 2026-05-08 08:45 | 10.31730 | 123.98516 | 38 ft | 32 kts | 223° |
| 2026-05-08 08:46 | 10.31587 | 123.98373 | 39 ft | 23 kts | 225° |
| 2026-05-08 08:46 | 10.31483 | 123.98244 | 39 ft | 21 kts | 262° |
| 2026-05-08 08:46 | 10.31544 | 123.98173 | 39 ft | 11 kts | 307° |
| 2026-05-08 08:46 | 10.31544 | 123.98083 | 38 ft | 16 kts | 234° |
| 2026-05-08 08:47 | 10.31511 | 123.98030 | 39 ft | 7 kts | 289° |
| 2026-05-08 08:47 | 10.31539 | 123.97996 | 37 ft | 6 kts | 314° |
| 2026-05-08 08:47 | 10.31555 | 123.97980 | 39 ft | 0 kts | 314° |